Forbes Field
KFOE : now visible

Airfield :











YOU CAN JOIN US ON...

 
LOGIN :

Register | Disclaimer

   EN    FR    IT 

 









Legend :    VFR   Marginal VFR   IFR   Intensive IFR   Very Intensive IFR
Visi :
Ceiling :
>= 8 km
>= 3000ft
5 to 8 km
1000 to 3000 ft
1500m to 5 km
500 to 1000 ft
800 to 1500m
200 to 500 ft
< 800m
< 200 ft
Symbols :   Thunderstorms  Fog  Heavy snow  Heavy precipitations  Wind > 20 kt






- Airport Elevation : 1078 ft
- IATA code : FOE


KFOE - Forbes Field

CURRENT METAR :
  • 202153Z 22009G17KT 10SM CLR 36/19 A2958 RMK AO2 SLP002 T03610194

EXPIRED METARs :
  • 202053Z 22009KT 10SM CLR 36/20 A2959 RMK AO2 SLP004 T03560200 55010
  • 201953Z 19013G19KT 10SM CLR 36/20 A2958 RMK AO2 SLP002 T03560200

TAF KFOE
Valid from the 20 at 18:00 until the 21 at 18:00 UTC


201739Z 2018/2118 21011KT P6SM SKC
FM202300 24012KT P6SM VCTS SCT050CB
FM210300 35011KT P6SM BKN150
FM211200 34010KT 6SM -SHRA BR BKN080
KZKC FIR / North America



MET'MAP, your aeronautical weather chart ! - Copyright ORBIFLY December 2007 - Disclaimer

ORBIFLY MET'MAP TEAM :

Programming & Development : Alexandra Zaïnal
Concept & original design : Baudouin d'Aumeries
Assistance for programming : Marc-Olivier Méhu
Technical & hardware support : Manuel Goepfert

Contact : metmap@orbifly.com




SOURCES & CREDITS :

   NOAA       Earth
Advisory